sensor_id;sensor_type;location;lat;lon;timestamp;P1;durP1;ratioP1;P2;durP2;ratioP2
30472;SDS011;17263;48.160;11.452;2022-11-20T00:01:11;2.70;;;2.50;;
30472;SDS011;17263;48.160;11.452;2022-11-20T00:03:39;2.73;;;2.47;;
30472;SDS011;17263;48.160;11.452;2022-11-20T00:06:06;2.70;;;2.20;;
30472;SDS011;17263;48.160;11.452;2022-11-20T00:08:35;3.00;;;2.70;;
30472;SDS011;17263;48.160;11.452;2022-11-20T00:11:35;4.90;;;2.80;;
30472;SDS011;17263;48.160;11.452;2022-11-20T00:13:56;2.90;;;2.50;;
30472;SDS011;17263;48.160;11.452;2022-11-20T00:16:24;3.57;;;2.50;;
30472;SDS011;17263;48.160;11.452;2022-11-20T00:18:52;2.77;;;2.20;;
30472;SDS011;17263;48.160;11.452;2022-11-20T00:21:21;3.23;;;2.70;;
30472;SDS011;17263;48.160;11.452;2022-11-20T00:23:49;3.47;;;2.43;;
30472;SDS011;17263;48.160;11.452;2022-11-20T00:26:18;3.57;;;2.80;;
30472;SDS011;17263;48.160;11.452;2022-11-20T00:28:52;3.07;;;2.70;;
30472;SDS011;17263;48.160;11.452;2022-11-20T00:31:20;2.97;;;2.67;;
30472;SDS011;17263;48.160;11.452;2022-11-20T00:33:46;3.23;;;2.70;;
30472;SDS011;17263;48.160;11.452;2022-11-20T00:36:14;3.77;;;2.67;;
30472;SDS011;17263;48.160;11.452;2022-11-20T00:38:44;3.23;;;2.53;;
30472;SDS011;17263;48.160;11.452;2022-11-20T00:41:14;4.13;;;2.93;;
30472;SDS011;17263;48.160;11.452;2022-11-20T00:43:41;3.07;;;2.77;;
30472;SDS011;17263;48.160;11.452;2022-11-20T00:46:18;4.50;;;3.30;;
30472;SDS011;17263;48.160;11.452;2022-11-20T00:48:46;3.17;;;2.90;;
30472;SDS011;17263;48.160;11.452;2022-11-20T00:51:14;3.97;;;2.90;;
30472;SDS011;17263;48.160;11.452;2022-11-20T00:53:41;6.63;;;3.10;;
30472;SDS011;17263;48.160;11.452;2022-11-20T00:56:12;3.50;;;3.20;;
30472;SDS011;17263;48.160;11.452;2022-11-20T00:58:40;4.23;;;3.30;;
30472;SDS011;17263;48.160;11.452;2022-11-20T01:01:09;3.87;;;3.10;;
30472;SDS011;17263;48.160;11.452;2022-11-20T01:03:52;3.53;;;2.90;;
30472;SDS011;17263;48.160;11.452;2022-11-20T01:06:20;3.30;;;3.00;;
30472;SDS011;17263;48.160;11.452;2022-11-20T01:08:48;3.80;;;3.10;;
30472;SDS011;17263;48.160;11.452;2022-11-20T01:11:20;3.80;;;3.23;;
30472;SDS011;17263;48.160;11.452;2022-11-20T01:13:49;4.90;;;3.30;;
30472;SDS011;17263;48.160;11.452;2022-11-20T01:16:21;3.80;;;3.07;;
30472;SDS011;17263;48.160;11.452;2022-11-20T01:18:50;3.37;;;2.93;;
30472;SDS011;17263;48.160;11.452;2022-11-20T01:21:21;3.73;;;2.90;;
30472;SDS011;17263;48.160;11.452;2022-11-20T01:23:49;3.80;;;3.23;;
30472;SDS011;17263;48.160;11.452;2022-11-20T01:26:17;3.17;;;2.90;;
30472;SDS011;17263;48.160;11.452;2022-11-20T01:28:45;4.13;;;3.30;;
30472;SDS011;17263;48.160;11.452;2022-11-20T01:31:13;4.37;;;3.00;;
30472;SDS011;17263;48.160;11.452;2022-11-20T01:33:48;4.80;;;3.20;;
30472;SDS011;17263;48.160;11.452;2022-11-20T01:36:17;3.30;;;3.00;;
30472;SDS011;17263;48.160;11.452;2022-11-20T01:38:44;4.50;;;3.27;;
30472;SDS011;17263;48.160;11.452;2022-11-20T01:41:11;4.93;;;2.87;;
30472;SDS011;17263;48.160;11.452;2022-11-20T01:43:58;3.80;;;3.40;;
30472;SDS011;17263;48.160;11.452;2022-11-20T01:46:25;7.03;;;3.17;;
30472;SDS011;17263;48.160;11.452;2022-11-20T01:49:00;4.70;;;2.80;;
30472;SDS011;17263;48.160;11.452;2022-11-20T01:51:34;4.40;;;3.30;;
30472;SDS011;17263;48.160;11.452;2022-11-20T01:54:11;3.97;;;2.70;;
30472;SDS011;17263;48.160;11.452;2022-11-20T01:56:45;3.17;;;2.80;;
30472;SDS011;17263;48.160;11.452;2022-11-20T01:59:16;4.30;;;2.80;;
30472;SDS011;17263;48.160;11.452;2022-11-20T02:01:44;3.43;;;3.10;;
30472;SDS011;17263;48.160;11.452;2022-11-20T02:04:11;3.80;;;2.90;;
30472;SDS011;17263;48.160;11.452;2022-11-20T02:06:40;4.27;;;2.97;;
30472;SDS011;17263;48.160;11.452;2022-11-20T02:09:10;4.03;;;3.30;;
30472;SDS011;17263;48.160;11.452;2022-11-20T02:11:37;3.80;;;3.40;;
30472;SDS011;17263;48.160;11.452;2022-11-20T02:14:03;4.40;;;3.33;;
30472;SDS011;17263;48.160;11.452;2022-11-20T02:16:39;4.10;;;3.33;;
30472;SDS011;17263;48.160;11.452;2022-11-20T02:19:16;5.30;;;3.60;;
30472;SDS011;17263;48.160;11.452;2022-11-20T02:24:59;4.03;;;3.20;;
30472;SDS011;17263;48.160;11.452;2022-11-20T02:27:27;3.23;;;2.93;;
30472;SDS011;17263;48.160;11.452;2022-11-20T02:29:58;4.80;;;3.20;;
30472;SDS011;17263;48.160;11.452;2022-11-20T02:32:32;4.07;;;3.37;;
30472;SDS011;17263;48.160;11.452;2022-11-20T02:35:06;3.80;;;3.50;;
30472;SDS011;17263;48.160;11.452;2022-11-20T02:37:34;3.70;;;3.23;;
30472;SDS011;17263;48.160;11.452;2022-11-20T02:40:04;4.03;;;3.60;;
30472;SDS011;17263;48.160;11.452;2022-11-20T02:42:30;4.23;;;3.50;;
30472;SDS011;17263;48.160;11.452;2022-11-20T02:44:56;3.63;;;3.33;;
30472;SDS011;17263;48.160;11.452;2022-11-20T02:47:22;4.87;;;3.20;;
30472;SDS011;17263;48.160;11.452;2022-11-20T02:49:48;4.13;;;2.90;;
30472;SDS011;17263;48.160;11.452;2022-11-20T02:52:14;3.40;;;3.10;;
30472;SDS011;17263;48.160;11.452;2022-11-20T02:54:40;3.73;;;2.87;;
30472;SDS011;17263;48.160;11.452;2022-11-20T02:57:06;3.30;;;2.97;;
30472;SDS011;17263;48.160;11.452;2022-11-20T02:59:32;3.73;;;3.00;;
30472;SDS011;17263;48.160;11.452;2022-11-20T03:01:58;3.63;;;3.07;;
30472;SDS011;17263;48.160;11.452;2022-11-20T03:04:24;4.77;;;3.10;;
30472;SDS011;17263;48.160;11.452;2022-11-20T03:06:50;3.53;;;3.20;;
30472;SDS011;17263;48.160;11.452;2022-11-20T03:09:16;3.53;;;3.23;;
30472;SDS011;17263;48.160;11.452;2022-11-20T03:11:42;3.00;;;2.70;;
30472;SDS011;17263;48.160;11.452;2022-11-20T03:14:08;4.00;;;3.23;;
30472;SDS011;17263;48.160;11.452;2022-11-20T03:16:34;4.53;;;2.87;;
30472;SDS011;17263;48.160;11.452;2022-11-20T03:19:01;3.40;;;3.10;;
30472;SDS011;17263;48.160;11.452;2022-11-20T03:21:27;3.77;;;3.47;;
30472;SDS011;17263;48.160;11.452;2022-11-20T03:23:53;3.10;;;2.80;;
30472;SDS011;17263;48.160;11.452;2022-11-20T03:26:21;4.77;;;3.13;;
30472;SDS011;17263;48.160;11.452;2022-11-20T03:28:50;4.47;;;3.43;;
30472;SDS011;17263;48.160;11.452;2022-11-20T03:31:19;3.23;;;2.93;;
30472;SDS011;17263;48.160;11.452;2022-11-20T03:33:47;5.67;;;2.97;;
30472;SDS011;17263;48.160;11.452;2022-11-20T03:36:14;3.30;;;3.00;;
30472;SDS011;17263;48.160;11.452;2022-11-20T03:38:41;3.83;;;3.43;;
30472;SDS011;17263;48.160;11.452;2022-11-20T03:41:08;3.27;;;2.80;;
30472;SDS011;17263;48.160;11.452;2022-11-20T03:43:36;3.70;;;3.20;;
30472;SDS011;17263;48.160;11.452;2022-11-20T03:46:03;3.27;;;2.97;;
30472;SDS011;17263;48.160;11.452;2022-11-20T03:48:29;4.47;;;3.20;;
30472;SDS011;17263;48.160;11.452;2022-11-20T03:51:09;3.83;;;3.00;;
30472;SDS011;17263;48.160;11.452;2022-11-20T03:53:40;3.20;;;2.90;;
30472;SDS011;17263;48.160;11.452;2022-11-20T03:56:07;3.20;;;2.90;;
30472;SDS011;17263;48.160;11.452;2022-11-20T03:58:34;5.43;;;3.00;;
30472;SDS011;17263;48.160;11.452;2022-11-20T04:01:08;3.30;;;3.00;;
30472;SDS011;17263;48.160;11.452;2022-11-20T04:03:39;3.30;;;3.00;;
30472;SDS011;17263;48.160;11.452;2022-11-20T04:06:07;4.67;;;3.43;;
30472;SDS011;17263;48.160;11.452;2022-11-20T04:08:39;3.73;;;2.90;;
30472;SDS011;17263;48.160;11.452;2022-11-20T04:11:13;3.77;;;3.23;;
30472;SDS011;17263;48.160;11.452;2022-11-20T04:13:48;4.80;;;3.00;;
30472;SDS011;17263;48.160;11.452;2022-11-20T04:16:16;4.70;;;3.00;;
30472;SDS011;17263;48.160;11.452;2022-11-20T04:18:43;3.67;;;2.70;;
30472;SDS011;17263;48.160;11.452;2022-11-20T04:21:10;4.03;;;2.97;;
30472;SDS011;17263;48.160;11.452;2022-11-20T04:23:37;2.97;;;2.73;;
30472;SDS011;17263;48.160;11.452;2022-11-20T04:26:07;3.30;;;2.80;;
30472;SDS011;17263;48.160;11.452;2022-11-20T04:28:34;3.20;;;2.90;;
30472;SDS011;17263;48.160;11.452;2022-11-20T04:31:03;3.10;;;2.80;;
30472;SDS011;17263;48.160;11.452;2022-11-20T04:33:31;3.50;;;2.80;;
30472;SDS011;17263;48.160;11.452;2022-11-20T04:36:00;3.93;;;3.20;;
30472;SDS011;17263;48.160;11.452;2022-11-20T04:38:27;3.27;;;2.97;;
30472;SDS011;17263;48.160;11.452;2022-11-20T04:41:00;3.90;;;2.80;;
30472;SDS011;17263;48.160;11.452;2022-11-20T04:43:27;4.50;;;3.00;;
30472;SDS011;17263;48.160;11.452;2022-11-20T04:45:54;3.10;;;2.80;;
30472;SDS011;17263;48.160;11.452;2022-11-20T04:48:21;4.30;;;3.23;;
30472;SDS011;17263;48.160;11.452;2022-11-20T04:50:48;3.33;;;3.03;;
30472;SDS011;17263;48.160;11.452;2022-11-20T04:53:14;4.70;;;3.30;;
30472;SDS011;17263;48.160;11.452;2022-11-20T04:55:40;4.10;;;3.50;;
30472;SDS011;17263;48.160;11.452;2022-11-20T04:58:06;3.50;;;2.97;;
30472;SDS011;17263;48.160;11.452;2022-11-20T05:00:32;3.70;;;3.20;;
30472;SDS011;17263;48.160;11.452;2022-11-20T05:02:58;3.20;;;2.90;;
30472;SDS011;17263;48.160;11.452;2022-11-20T05:05:24;4.77;;;3.13;;
30472;SDS011;17263;48.160;11.452;2022-11-20T05:07:50;4.17;;;3.30;;
30472;SDS011;17263;48.160;11.452;2022-11-20T05:10:16;3.00;;;2.77;;
30472;SDS011;17263;48.160;11.452;2022-11-20T05:12:42;5.10;;;3.10;;
30472;SDS011;17263;48.160;11.452;2022-11-20T05:15:08;3.83;;;3.10;;
30472;SDS011;17263;48.160;11.452;2022-11-20T05:17:35;3.20;;;2.90;;
30472;SDS011;17263;48.160;11.452;2022-11-20T05:20:01;3.93;;;3.10;;
30472;SDS011;17263;48.160;11.452;2022-11-20T05:22:27;4.70;;;2.70;;
30472;SDS011;17263;48.160;11.452;2022-11-20T05:24:53;4.33;;;2.90;;
30472;SDS011;17263;48.160;11.452;2022-11-20T05:27:19;3.30;;;3.00;;
30472;SDS011;17263;48.160;11.452;2022-11-20T05:29:45;3.87;;;3.17;;
30472;SDS011;17263;48.160;11.452;2022-11-20T05:32:11;3.73;;;2.80;;
30472;SDS011;17263;48.160;11.452;2022-11-20T05:34:37;3.40;;;3.10;;
30472;SDS011;17263;48.160;11.452;2022-11-20T05:37:03;3.57;;;3.27;;
30472;SDS011;17263;48.160;11.452;2022-11-20T05:39:29;3.40;;;3.10;;
30472;SDS011;17263;48.160;11.452;2022-11-20T05:41:55;4.50;;;3.23;;
30472;SDS011;17263;48.160;11.452;2022-11-20T05:44:40;3.53;;;3.23;;
30472;SDS011;17263;48.160;11.452;2022-11-20T05:47:06;3.97;;;3.27;;
30472;SDS011;17263;48.160;11.452;2022-11-20T05:49:32;5.93;;;3.10;;
30472;SDS011;17263;48.160;11.452;2022-11-20T05:51:58;3.27;;;2.97;;
30472;SDS011;17263;48.160;11.452;2022-11-20T05:54:24;3.03;;;2.77;;
30472;SDS011;17263;48.160;11.452;2022-11-20T05:56:50;3.87;;;2.93;;
30472;SDS011;17263;48.160;11.452;2022-11-20T05:59:16;4.37;;;2.90;;
30472;SDS011;17263;48.160;11.452;2022-11-20T06:01:42;4.60;;;3.00;;
30472;SDS011;17263;48.160;11.452;2022-11-20T06:04:08;2.80;;;2.60;;
30472;SDS011;17263;48.160;11.452;2022-11-20T06:06:34;2.90;;;2.70;;
30472;SDS011;17263;48.160;11.452;2022-11-20T06:09:00;3.17;;;2.87;;
30472;SDS011;17263;48.160;11.452;2022-11-20T06:11:26;4.50;;;2.80;;
30472;SDS011;17263;48.160;11.452;2022-11-20T06:13:52;3.37;;;3.00;;
30472;SDS011;17263;48.160;11.452;2022-11-20T06:16:19;3.93;;;2.77;;
30472;SDS011;17263;48.160;11.452;2022-11-20T06:18:46;3.73;;;3.03;;
30472;SDS011;17263;48.160;11.452;2022-11-20T06:21:14;3.20;;;2.80;;
30472;SDS011;17263;48.160;11.452;2022-11-20T06:23:42;4.63;;;3.03;;
30472;SDS011;17263;48.160;11.452;2022-11-20T06:26:13;3.57;;;2.70;;
30472;SDS011;17263;48.160;11.452;2022-11-20T06:28:40;4.20;;;3.10;;
30472;SDS011;17263;48.160;11.452;2022-11-20T06:31:07;3.17;;;2.87;;
30472;SDS011;17263;48.160;11.452;2022-11-20T06:33:36;3.67;;;3.00;;
30472;SDS011;17263;48.160;11.452;2022-11-20T06:36:02;5.63;;;3.23;;
30472;SDS011;17263;48.160;11.452;2022-11-20T06:38:29;2.70;;;2.50;;
30472;SDS011;17263;48.160;11.452;2022-11-20T06:40:55;3.00;;;2.70;;
30472;SDS011;17263;48.160;11.452;2022-11-20T06:43:22;2.63;;;2.43;;
30472;SDS011;17263;48.160;11.452;2022-11-20T06:45:55;3.10;;;2.80;;
30472;SDS011;17263;48.160;11.452;2022-11-20T06:48:23;4.30;;;2.63;;
30472;SDS011;17263;48.160;11.452;2022-11-20T06:50:50;2.80;;;2.60;;
30472;SDS011;17263;48.160;11.452;2022-11-20T06:53:17;2.73;;;2.30;;
30472;SDS011;17263;48.160;11.452;2022-11-20T06:55:43;2.67;;;2.40;;
30472;SDS011;17263;48.160;11.452;2022-11-20T06:58:10;4.30;;;2.43;;
30472;SDS011;17263;48.160;11.452;2022-11-20T07:00:37;2.90;;;2.33;;
30472;SDS011;17263;48.160;11.452;2022-11-20T07:03:04;2.60;;;2.20;;
30472;SDS011;17263;48.160;11.452;2022-11-20T07:05:30;1.97;;;1.77;;
30472;SDS011;17263;48.160;11.452;2022-11-20T07:07:56;2.40;;;2.00;;
30472;SDS011;17263;48.160;11.452;2022-11-20T07:10:23;2.77;;;2.20;;
30472;SDS011;17263;48.160;11.452;2022-11-20T07:12:52;2.13;;;2.00;;
30472;SDS011;17263;48.160;11.452;2022-11-20T07:15:19;2.17;;;1.93;;
30472;SDS011;17263;48.160;11.452;2022-11-20T07:17:47;2.57;;;2.37;;
30472;SDS011;17263;48.160;11.452;2022-11-20T07:20:13;2.83;;;2.30;;
30472;SDS011;17263;48.160;11.452;2022-11-20T07:22:40;3.70;;;2.70;;
30472;SDS011;17263;48.160;11.452;2022-11-20T07:25:07;3.33;;;2.93;;
30472;SDS011;17263;48.160;11.452;2022-11-20T07:27:33;2.97;;;2.47;;
30472;SDS011;17263;48.160;11.452;2022-11-20T07:30:00;3.33;;;2.47;;
30472;SDS011;17263;48.160;11.452;2022-11-20T07:32:26;2.93;;;2.67;;
30472;SDS011;17263;48.160;11.452;2022-11-20T07:34:52;2.90;;;2.70;;
30472;SDS011;17263;48.160;11.452;2022-11-20T07:37:18;2.80;;;2.60;;
30472;SDS011;17263;48.160;11.452;2022-11-20T07:39:44;3.67;;;2.83;;
30472;SDS011;17263;48.160;11.452;2022-11-20T07:42:10;3.10;;;2.80;;
30472;SDS011;17263;48.160;11.452;2022-11-20T07:44:37;3.13;;;2.83;;
30472;SDS011;17263;48.160;11.452;2022-11-20T07:47:03;3.17;;;2.20;;
30472;SDS011;17263;48.160;11.452;2022-11-20T07:49:29;2.90;;;2.70;;
30472;SDS011;17263;48.160;11.452;2022-11-20T07:51:56;3.13;;;2.70;;
30472;SDS011;17263;48.160;11.452;2022-11-20T07:54:22;5.50;;;2.93;;
30472;SDS011;17263;48.160;11.452;2022-11-20T07:56:48;2.97;;;2.70;;
30472;SDS011;17263;48.160;11.452;2022-11-20T07:59:14;3.27;;;2.83;;
30472;SDS011;17263;48.160;11.452;2022-11-20T08:01:41;5.97;;;3.27;;
30472;SDS011;17263;48.160;11.452;2022-11-20T08:04:08;3.00;;;2.70;;
30472;SDS011;17263;48.160;11.452;2022-11-20T08:06:35;3.70;;;3.23;;
30472;SDS011;17263;48.160;11.452;2022-11-20T08:09:02;3.00;;;2.50;;
30472;SDS011;17263;48.160;11.452;2022-11-20T08:11:28;3.57;;;2.83;;
30472;SDS011;17263;48.160;11.452;2022-11-20T08:14:13;3.70;;;3.03;;
30472;SDS011;17263;48.160;11.452;2022-11-20T08:19:15;4.03;;;2.97;;
30472;SDS011;17263;48.160;11.452;2022-11-20T08:21:42;3.57;;;3.00;;
30472;SDS011;17263;48.160;11.452;2022-11-20T08:24:09;3.77;;;2.83;;
30472;SDS011;17263;48.160;11.452;2022-11-20T08:26:36;3.43;;;3.13;;
30472;SDS011;17263;48.160;11.452;2022-11-20T08:29:03;3.63;;;2.73;;
30472;SDS011;17263;48.160;11.452;2022-11-20T08:31:30;2.90;;;2.37;;
30472;SDS011;17263;48.160;11.452;2022-11-20T08:33:57;3.00;;;2.70;;
30472;SDS011;17263;48.160;11.452;2022-11-20T08:36:23;3.53;;;2.90;;
30472;SDS011;17263;48.160;11.452;2022-11-20T08:38:50;3.50;;;3.00;;
30472;SDS011;17263;48.160;11.452;2022-11-20T08:41:18;3.60;;;2.60;;
30472;SDS011;17263;48.160;11.452;2022-11-20T08:43:55;2.77;;;2.47;;
30472;SDS011;17263;48.160;11.452;2022-11-20T08:46:23;2.43;;;2.23;;
30472;SDS011;17263;48.160;11.452;2022-11-20T08:48:50;4.00;;;2.60;;
30472;SDS011;17263;48.160;11.452;2022-11-20T08:51:17;3.07;;;1.93;;
30472;SDS011;17263;48.160;11.452;2022-11-20T08:53:44;3.30;;;2.30;;
30472;SDS011;17263;48.160;11.452;2022-11-20T08:56:10;2.50;;;2.30;;
30472;SDS011;17263;48.160;11.452;2022-11-20T08:58:37;2.37;;;2.17;;
30472;SDS011;17263;48.160;11.452;2022-11-20T09:01:03;3.27;;;2.40;;
30472;SDS011;17263;48.160;11.452;2022-11-20T09:03:30;2.63;;;2.17;;
30472;SDS011;17263;48.160;11.452;2022-11-20T09:05:57;3.00;;;2.60;;
30472;SDS011;17263;48.160;11.452;2022-11-20T09:08:24;2.87;;;2.47;;
30472;SDS011;17263;48.160;11.452;2022-11-20T09:10:51;2.33;;;2.07;;
30472;SDS011;17263;48.160;11.452;2022-11-20T09:13:18;2.63;;;2.17;;
30472;SDS011;17263;48.160;11.452;2022-11-20T09:15:44;3.27;;;2.43;;
30472;SDS011;17263;48.160;11.452;2022-11-20T09:18:10;3.23;;;2.33;;
30472;SDS011;17263;48.160;11.452;2022-11-20T09:20:36;4.30;;;2.40;;
30472;SDS011;17263;48.160;11.452;2022-11-20T09:23:02;2.50;;;2.30;;
30472;SDS011;17263;48.160;11.452;2022-11-20T09:25:28;2.73;;;2.27;;
30472;SDS011;17263;48.160;11.452;2022-11-20T09:27:57;2.70;;;2.40;;
30472;SDS011;17263;48.160;11.452;2022-11-20T09:30:24;3.13;;;2.30;;
30472;SDS011;17263;48.160;11.452;2022-11-20T09:32:51;2.10;;;1.97;;
30472;SDS011;17263;48.160;11.452;2022-11-20T09:35:17;2.40;;;2.20;;
30472;SDS011;17263;48.160;11.452;2022-11-20T09:37:44;3.37;;;2.43;;
30472;SDS011;17263;48.160;11.452;2022-11-20T09:40:20;2.73;;;2.20;;
30472;SDS011;17263;48.160;11.452;2022-11-20T09:46:09;2.23;;;2.03;;
30472;SDS011;17263;48.160;11.452;2022-11-20T09:51:59;10.43;;;2.80;;
30472;SDS011;17263;48.160;11.452;2022-11-20T09:54:39;5.33;;;2.10;;
30472;SDS011;17263;48.160;11.452;2022-11-20T09:57:13;5.00;;;2.10;;
30472;SDS011;17263;48.160;11.452;2022-11-20T09:59:54;3.60;;;2.30;;
30472;SDS011;17263;48.160;11.452;2022-11-20T10:02:27;2.47;;;2.03;;
30472;SDS011;17263;48.160;11.452;2022-11-20T10:07:39;2.33;;;2.13;;
30472;SDS011;17263;48.160;11.452;2022-11-20T10:10:14;2.17;;;1.77;;
30472;SDS011;17263;48.160;11.452;2022-11-20T10:18:34;2.40;;;1.67;;
30472;SDS011;17263;48.160;11.452;2022-11-20T10:26:49;1.77;;;1.67;;
30472;SDS011;17263;48.160;11.452;2022-11-20T10:29:29;1.87;;;1.77;;
30472;SDS011;17263;48.160;11.452;2022-11-20T10:32:24;2.10;;;1.57;;
30472;SDS011;17263;48.160;11.452;2022-11-20T10:34:54;2.30;;;1.60;;
30472;SDS011;17263;48.160;11.452;2022-11-20T10:37:32;2.27;;;1.80;;
30472;SDS011;17263;48.160;11.452;2022-11-20T10:40:03;1.73;;;1.63;;
30472;SDS011;17263;48.160;11.452;2022-11-20T10:42:48;1.87;;;1.40;;
30472;SDS011;17263;48.160;11.452;2022-11-20T10:45:27;1.30;;;1.20;;
30472;SDS011;17263;48.160;11.452;2022-11-20T10:48:26;2.30;;;1.33;;
30472;SDS011;17263;48.160;11.452;2022-11-20T10:55:59;2.30;;;1.40;;
30472;SDS011;17263;48.160;11.452;2022-11-20T11:01:50;1.77;;;1.27;;
30472;SDS011;17263;48.160;11.452;2022-11-20T11:07:04;1.93;;;1.50;;
30472;SDS011;17263;48.160;11.452;2022-11-20T11:09:53;1.60;;;1.30;;
30472;SDS011;17263;48.160;11.452;2022-11-20T11:12:21;1.50;;;1.40;;
30472;SDS011;17263;48.160;11.452;2022-11-20T11:14:50;1.53;;;1.43;;
30472;SDS011;17263;48.160;11.452;2022-11-20T11:19:58;2.03;;;1.53;;
30472;SDS011;17263;48.160;11.452;2022-11-20T11:22:29;2.57;;;1.60;;
30472;SDS011;17263;48.160;11.452;2022-11-20T11:24:57;3.23;;;1.40;;
30472;SDS011;17263;48.160;11.452;2022-11-20T11:27:23;2.57;;;1.40;;
30472;SDS011;17263;48.160;11.452;2022-11-20T11:29:49;2.33;;;1.50;;
30472;SDS011;17263;48.160;11.452;2022-11-20T11:32:26;2.47;;;1.40;;
30472;SDS011;17263;48.160;11.452;2022-11-20T11:34:59;3.03;;;1.50;;
30472;SDS011;17263;48.160;11.452;2022-11-20T11:37:33;1.80;;;1.40;;
30472;SDS011;17263;48.160;11.452;2022-11-20T11:40:02;1.90;;;1.13;;
30472;SDS011;17263;48.160;11.452;2022-11-20T11:42:30;1.90;;;1.43;;
30472;SDS011;17263;48.160;11.452;2022-11-20T11:44:57;2.47;;;1.63;;
30472;SDS011;17263;48.160;11.452;2022-11-20T11:55:12;3.50;;;1.40;;
30472;SDS011;17263;48.160;11.452;2022-11-20T11:57:55;2.57;;;1.70;;
30472;SDS011;17263;48.160;11.452;2022-11-20T12:00:37;2.60;;;1.70;;
30472;SDS011;17263;48.160;11.452;2022-11-20T12:03:09;1.50;;;1.40;;
30472;SDS011;17263;48.160;11.452;2022-11-20T12:05:44;1.57;;;1.33;;
30472;SDS011;17263;48.160;11.452;2022-11-20T12:08:19;1.37;;;1.27;;
30472;SDS011;17263;48.160;11.452;2022-11-20T12:15:54;1.67;;;1.10;;
30472;SDS011;17263;48.160;11.452;2022-11-20T12:18:21;1.67;;;1.37;;
30472;SDS011;17263;48.160;11.452;2022-11-20T12:31:36;3.60;;;1.90;;
30472;SDS011;17263;48.160;11.452;2022-11-20T12:37:53;1.80;;;1.70;;
30472;SDS011;17263;48.160;11.452;2022-11-20T12:40:17;4.43;;;1.60;;
30472;SDS011;17263;48.160;11.452;2022-11-20T12:43:19;1.97;;;1.80;;
30472;SDS011;17263;48.160;11.452;2022-11-20T12:48:50;1.77;;;1.67;;
30472;SDS011;17263;48.160;11.452;2022-11-20T12:56:42;2.80;;;1.60;;
30472;SDS011;17263;48.160;11.452;2022-11-20T13:02:18;2.67;;;2.00;;
30472;SDS011;17263;48.160;11.452;2022-11-20T13:07:53;2.63;;;1.40;;
30472;SDS011;17263;48.160;11.452;2022-11-20T13:13:10;2.10;;;1.90;;
30472;SDS011;17263;48.160;11.452;2022-11-20T13:15:55;1.90;;;1.70;;
30472;SDS011;17263;48.160;11.452;2022-11-20T13:18:35;4.10;;;2.10;;
30472;SDS011;17263;48.160;11.452;2022-11-20T13:21:13;1.83;;;1.73;;
30472;SDS011;17263;48.160;11.452;2022-11-20T13:24:04;2.30;;;2.10;;
30472;SDS011;17263;48.160;11.452;2022-11-20T13:29:40;2.30;;;2.07;;
30472;SDS011;17263;48.160;11.452;2022-11-20T13:32:16;1.77;;;1.67;;
30472;SDS011;17263;48.160;11.452;2022-11-20T13:34:55;2.40;;;1.73;;
30472;SDS011;17263;48.160;11.452;2022-11-20T13:37:33;4.53;;;1.90;;
30472;SDS011;17263;48.160;11.452;2022-11-20T13:45:26;2.90;;;1.73;;
30472;SDS011;17263;48.160;11.452;2022-11-20T13:47:54;2.83;;;2.03;;
30472;SDS011;17263;48.160;11.452;2022-11-20T13:55:53;1.87;;;1.60;;
30472;SDS011;17263;48.160;11.452;2022-11-20T14:01:20;2.00;;;1.80;;
30472;SDS011;17263;48.160;11.452;2022-11-20T14:03:49;1.87;;;1.70;;
30472;SDS011;17263;48.160;11.452;2022-11-20T14:07:02;2.40;;;1.93;;
30472;SDS011;17263;48.160;11.452;2022-11-20T14:09:11;2.77;;;1.80;;
30472;SDS011;17263;48.160;11.452;2022-11-20T14:11:45;2.43;;;1.90;;
30472;SDS011;17263;48.160;11.452;2022-11-20T14:14:13;4.70;;;2.17;;
30472;SDS011;17263;48.160;11.452;2022-11-20T14:16:46;2.00;;;1.80;;
30472;SDS011;17263;48.160;11.452;2022-11-20T14:21:48;1.50;;;1.40;;
30472;SDS011;17263;48.160;11.452;2022-11-20T14:24:23;1.73;;;1.63;;
30472;SDS011;17263;48.160;11.452;2022-11-20T14:26:50;2.20;;;1.70;;
30472;SDS011;17263;48.160;11.452;2022-11-20T14:31:44;1.90;;;1.80;;
30472;SDS011;17263;48.160;11.452;2022-11-20T14:34:15;1.80;;;1.50;;
30472;SDS011;17263;48.160;11.452;2022-11-20T14:36:58;1.67;;;1.50;;
30472;SDS011;17263;48.160;11.452;2022-11-20T14:39:29;2.37;;;1.50;;
30472;SDS011;17263;48.160;11.452;2022-11-20T14:41:58;2.00;;;1.47;;
30472;SDS011;17263;48.160;11.452;2022-11-20T14:44:29;2.37;;;1.60;;
30472;SDS011;17263;48.160;11.452;2022-11-20T14:46:59;1.40;;;1.30;;
30472;SDS011;17263;48.160;11.452;2022-11-20T14:49:28;1.27;;;1.10;;
30472;SDS011;17263;48.160;11.452;2022-11-20T14:52:03;1.83;;;1.00;;
30472;SDS011;17263;48.160;11.452;2022-11-20T14:54:43;1.47;;;1.10;;
30472;SDS011;17263;48.160;11.452;2022-11-20T14:57:19;1.60;;;1.00;;
30472;SDS011;17263;48.160;11.452;2022-11-20T15:02:39;1.20;;;1.10;;
30472;SDS011;17263;48.160;11.452;2022-11-20T15:05:09;1.40;;;1.00;;
30472;SDS011;17263;48.160;11.452;2022-11-20T15:07:37;1.13;;;1.03;;
30472;SDS011;17263;48.160;11.452;2022-11-20T15:10:32;1.23;;;1.10;;
30472;SDS011;17263;48.160;11.452;2022-11-20T15:13:02;1.20;;;1.10;;
30472;SDS011;17263;48.160;11.452;2022-11-20T15:15:36;1.63;;;1.50;;
30472;SDS011;17263;48.160;11.452;2022-11-20T15:18:12;2.37;;;1.10;;
30472;SDS011;17263;48.160;11.452;2022-11-20T15:20:40;1.50;;;1.20;;
30472;SDS011;17263;48.160;11.452;2022-11-20T15:23:11;1.27;;;1.17;;
30472;SDS011;17263;48.160;11.452;2022-11-20T15:25:38;1.20;;;1.10;;
30472;SDS011;17263;48.160;11.452;2022-11-20T15:28:11;1.30;;;1.20;;
30472;SDS011;17263;48.160;11.452;2022-11-20T15:30:47;1.53;;;1.43;;
30472;SDS011;17263;48.160;11.452;2022-11-20T15:33:14;2.20;;;1.60;;
30472;SDS011;17263;48.160;11.452;2022-11-20T15:35:41;1.57;;;1.47;;
30472;SDS011;17263;48.160;11.452;2022-11-20T15:38:08;2.43;;;1.60;;
30472;SDS011;17263;48.160;11.452;2022-11-20T15:40:34;5.13;;;1.40;;
30472;SDS011;17263;48.160;11.452;2022-11-20T15:43:00;2.57;;;1.50;;
30472;SDS011;17263;48.160;11.452;2022-11-20T15:45:30;2.00;;;1.60;;
30472;SDS011;17263;48.160;11.452;2022-11-20T15:48:03;2.33;;;1.60;;
30472;SDS011;17263;48.160;11.452;2022-11-20T15:50:34;2.73;;;1.60;;
30472;SDS011;17263;48.160;11.452;2022-11-20T15:53:03;1.90;;;1.60;;
30472;SDS011;17263;48.160;11.452;2022-11-20T15:55:29;1.83;;;1.60;;
30472;SDS011;17263;48.160;11.452;2022-11-20T15:57:56;1.73;;;1.57;;
30472;SDS011;17263;48.160;11.452;2022-11-20T16:00:22;2.20;;;1.90;;
30472;SDS011;17263;48.160;11.452;2022-11-20T16:02:48;2.10;;;1.90;;
30472;SDS011;17263;48.160;11.452;2022-11-20T16:05:14;2.47;;;1.80;;
30472;SDS011;17263;48.160;11.452;2022-11-20T16:07:41;3.13;;;1.97;;
30472;SDS011;17263;48.160;11.452;2022-11-20T16:10:07;1.83;;;1.47;;
30472;SDS011;17263;48.160;11.452;2022-11-20T16:12:34;1.97;;;1.80;;
30472;SDS011;17263;48.160;11.452;2022-11-20T16:15:19;3.70;;;2.07;;
30472;SDS011;17263;48.160;11.452;2022-11-20T16:18:03;2.40;;;2.10;;
30472;SDS011;17263;48.160;11.452;2022-11-20T16:20:29;4.93;;;1.93;;
30472;SDS011;17263;48.160;11.452;2022-11-20T16:22:55;2.97;;;2.17;;
30472;SDS011;17263;48.160;11.452;2022-11-20T16:25:22;3.27;;;2.70;;
30472;SDS011;17263;48.160;11.452;2022-11-20T16:27:48;3.77;;;2.60;;
30472;SDS011;17263;48.160;11.452;2022-11-20T16:30:14;3.03;;;2.57;;
30472;SDS011;17263;48.160;11.452;2022-11-20T16:32:40;3.03;;;2.70;;
30472;SDS011;17263;48.160;11.452;2022-11-20T16:35:07;3.43;;;2.70;;
30472;SDS011;17263;48.160;11.452;2022-11-20T16:37:33;2.50;;;2.20;;